Portada
METAR-TAF:

METAR-TAF

Aeroports :

Chiang Rai, Tailàndia

latitud: 19-57-08N, longitud: 099-52-59E, altitud: 390 m

Observació

L'informe es va fer fa 35 minuts, a les 18:00 UTC
Vent 4 kt del Sud/Sud-Est
Temperatura 25°C
Humitat 94%
Pressió 1006 hPa
Visibilitat 10 km o més
Escasses núvols a una alçada de 4000 ft

METAR: VTCT 161800Z 16004KT 9999 FEW040 25/24 Q1006 NOSIG

Hora: 01:35 (18:35 UTC)

Pronòstic

L'informe es va fer fa 1 hora i 35 minuts, a les 17:00 UTC
Pronòstic vàlid del 16 a les 18 UTC al 17 a les 24 UTC
Vent 5 kt del Sud
Visibilitat 10 km o més
Cel ennuvolat a una alçada de 4000 ft
Temporalment
l' 17 a les 06 UTC al 17 a les 12 UTC
Vent 15 kt amb direcció variable amb ràfegues de 25 kt
Visibilitat: 5000 m
Escasses núvols a una alçada de 2000 ft, Cumulonimbus.
Cel ennuvolat a una alçada de 3000 ft
tempesta, pluja

TAF: VTCT 161700Z 1618/1724 18005KT 9999 BKN040 TEMPO 1706/1712 VRB15G25KT 5000 TSRA FEW020CB BKN030

Observacions i pronòstics meteorològics de més de 4000 aeroports (METAR i TAF).

Les estacions disponibles són els punts grocs i vermells al mapa.

Posi el ratolí al punt desitjat per veure el nom de l'estació.

Feu clic per veure les observacions i els pronòstics meteorològics.

Per canviar el mapa: feu clic els botons verds amb una creu de color negre per apropar; al botó verd amb un guió per allunyar la imatge; o en les fletxes verdes per a mapes adjacents.


METAR-TAF: